McClelland, Iowa
Current Conditions -  °F | °C
As of 9:35 AM on Friday 24 Oct 2014 (Local Time) from KCBF Reporting Station
Haze Haze  
Wind Chill: 61°   Ceiling: 700
Heat Index: 61°   Visibility: 4mi
Dew Point: 61°   Wind: 12mph
Humidity: 100%   Direction: 200°SSW
Pressure: 29.92"   Gusts: 17mph
Location:  41.33°N, 95.68°W
Report Text: KCBF 241435Z AUTO 20010G15KT 4SM BR BKN007 16/16 A2992 RMK AO2
Loading
Personal Weather Stations






























Interactive Weather Map
Tropical Storm Tracking
New forecast layout! Learn more

10-Day Weather Forecast

Advertisements
Track Severe Weather on mobile